Time;durP1;ratioP1;P1;durP2;ratioP2;P2;SDS_P1;SDS_P2;PMS_P1;PMS_P2;Temp;Humidity;BMP_temperature;BMP_pressure;BME280_temperature;BME280_humidity;BME280_pressure;Samples;Min_cycle;Max_cycle;Signal;HPM_P1;HPM_P2
2022/07/23 00:01:15;;;;;;;4.07;1.00;;;20.40;88.10;;;;;;5035871;28;20034;-77
2022/07/23 00:03:41;;;;;;;2.60;0.85;;;20.40;88.10;;;;;;5035742;28;20354;-77
2022/07/23 00:06:06;;;;;;;4.18;0.70;;;20.40;88.30;;;;;;5035614;28;20113;-77
2022/07/23 00:08:32;;;;;;;1.92;0.75;;;20.30;88.50;;;;;;5035632;28;20022;-77
2022/07/23 00:10:58;;;;;;;2.50;0.70;;;20.30;89.10;;;;;;5035888;28;20022;-77
2022/07/23 00:13:23;;;;;;;4.57;1.02;;;20.30;88.60;;;;;;5035875;28;20087;-77
2022/07/23 00:15:49;;;;;;;0.98;0.60;;;20.20;88.90;;;;;;5035377;28;20104;-77
2022/07/23 00:18:14;;;;;;;2.35;0.77;;;20.20;89.20;;;;;;5035499;28;20022;-77
2022/07/23 00:20:40;;;;;;;2.22;0.90;;;20.10;89.40;;;;;;5035270;28;20034;-77
2022/07/23 00:23:06;;;;;;;3.30;1.00;;;20.00;89.60;;;;;;5035650;28;20026;-77
2022/07/23 00:25:31;;;;;;;7.35;1.83;;;20.00;90.00;;;;;;5035354;28;20504;-77
2022/07/23 00:27:59;;;;;;;1.98;1.00;;;19.80;90.20;;;;;;5035063;28;20029;-77
2022/07/23 00:30:25;;;;;;;2.35;1.08;;;19.70;90.40;;;;;;5035312;28;20021;-77
2022/07/23 00:32:54;;;;;;;4.88;1.75;;;19.60;90.60;;;;;;5035274;28;20025;-77
2022/07/23 00:35:21;;;;;;;3.42;0.80;;;19.60;90.80;;;;;;5035045;28;20048;-77
2022/07/23 00:37:47;;;;;;;2.17;1.33;;;19.60;90.90;;;;;;5035395;28;20053;-77
2022/07/23 00:40:13;;;;;;;3.83;1.10;;;19.50;90.90;;;;;;5034939;28;20037;-77
2022/07/23 00:42:39;;;;;;;3.72;1.38;;;19.50;91.00;;;;;;5035061;28;20101;-77
2022/07/23 00:45:06;;;;;;;5.50;1.35;;;19.50;91.00;;;;;;5034781;28;20088;-77
2022/07/23 00:47:31;;;;;;;4.80;1.10;;;19.50;91.10;;;;;;5034941;28;20033;-77
2022/07/23 00:49:57;;;;;;;3.33;1.15;;;19.40;91.20;;;;;;5035067;28;20029;-77
2022/07/23 00:52:23;;;;;;;2.33;1.00;;;19.30;91.30;;;;;;5035068;28;20432;-77
2022/07/23 00:54:49;;;;;;;2.70;0.93;;;19.30;91.50;;;;;;5034746;28;20056;-77
2022/07/23 00:57:15;;;;;;;5.60;1.20;;;19.30;91.50;;;;;;5034710;28;20021;-77
2022/07/23 00:59:41;;;;;;;1.48;0.70;;;19.20;91.50;;;;;;5034535;28;20087;-77
2022/07/23 01:02:07;;;;;;;2.35;1.08;;;19.20;91.70;;;;;;5034572;28;20109;-77
2022/07/23 01:04:33;;;;;;;3.13;1.02;;;19.30;91.70;;;;;;5033910;28;20029;-77
2022/07/23 01:06:59;;;;;;;5.22;1.63;;;19.30;91.70;;;;;;5034489;28;20057;-77
2022/07/23 01:09:25;;;;;;;3.78;1.55;;;19.20;91.60;;;;;;5034505;28;20067;-77
2022/07/23 01:11:52;;;;;;;3.05;1.10;;;19.20;91.60;;;;;;5034714;28;20057;-77
2022/07/23 01:14:19;;;;;;;3.53;1.40;;;19.10;91.80;;;;;;5034418;28;20034;-77
2022/07/23 01:16:46;;;;;;;2.75;0.68;;;19.10;91.80;;;;;;5034421;28;20026;-77
2022/07/23 01:19:13;;;;;;;4.93;0.90;;;19.10;91.90;;;;;;5034208;28;20041;-77
2022/07/23 01:21:45;;;;;;;2.67;1.02;;;19.20;92.00;;;;;;5034492;28;20105;-77
2022/07/23 01:24:12;;;;;;;2.60;0.82;;;19.20;91.90;;;;;;5034267;28;20108;-77
2022/07/23 01:26:39;;;;;;;5.03;1.08;;;19.30;91.90;;;;;;5034439;28;20108;-77
2022/07/23 01:29:05;;;;;;;2.35;1.17;;;19.40;91.80;;;;;;5034111;28;20112;-77
2022/07/23 01:31:31;;;;;;;1.70;0.80;;;19.40;91.40;;;;;;5033750;28;20049;-77
2022/07/23 01:33:57;;;;;;;2.50;0.70;;;19.50;91.60;;;;;;5034272;28;20034;-77
2022/07/23 01:36:23;;;;;;;2.15;1.10;;;19.50;91.50;;;;;;5033970;28;20027;-77
2022/07/23 01:38:48;;;;;;;3.75;1.50;;;19.60;91.20;;;;;;5034084;28;20029;-77
2022/07/23 01:41:14;;;;;;;2.88;1.10;;;19.50;91.10;;;;;;5033961;28;20480;-77
2022/07/23 01:43:39;;;;;;;4.05;1.40;;;19.50;91.10;;;;;;5033652;28;20550;-77
2022/07/23 01:46:05;;;;;;;3.33;1.45;;;19.40;91.10;;;;;;5033807;28;20021;-77
2022/07/23 01:48:31;;;;;;;4.13;1.80;;;19.30;91.20;;;;;;5033792;28;20017;-77
2022/07/23 01:50:56;;;;;;;2.40;0.63;;;19.20;91.40;;;;;;5034053;28;20116;-77
2022/07/23 01:53:22;;;;;;;3.42;1.10;;;19.20;91.60;;;;;;5033588;28;20021;-77
2022/07/23 01:55:48;;;;;;;3.05;0.88;;;19.30;91.50;;;;;;5033797;28;20032;-77
2022/07/23 01:58:13;;;;;;;2.08;0.80;;;19.40;91.40;;;;;;5033909;28;20354;-77
2022/07/23 02:00:39;;;;;;;4.32;1.20;;;19.40;91.40;;;;;;5033694;28;20034;-77
2022/07/23 02:03:04;;;;;;;2.22;1.27;;;19.40;91.00;;;;;;5033551;28;20028;-77
2022/07/23 02:05:31;;;;;;;3.65;1.05;;;19.20;91.10;;;;;;5033846;28;20033;-77
2022/07/23 02:07:58;;;;;;;1.10;0.68;;;19.20;91.30;;;;;;5033462;28;20481;-77
2022/07/23 02:10:24;;;;;;;1.80;0.88;;;19.20;91.30;;;;;;5033470;28;20057;-77
2022/07/23 02:12:50;;;;;;;1.02;0.75;;;19.30;91.20;;;;;;5033422;28;20080;-77
2022/07/23 02:15:15;;;;;;;3.63;1.17;;;19.30;91.40;;;;;;5033124;28;20053;-77
2022/07/23 02:17:41;;;;;;;5.63;1.25;;;19.10;91.10;;;;;;5033330;28;20040;-77
2022/07/23 02:20:09;;;;;;;2.10;1.20;;;19.00;91.40;;;;;;5033215;28;20029;-77
2022/07/23 02:22:35;;;;;;;5.80;1.30;;;18.90;91.50;;;;;;5033150;28;20025;-77
2022/07/23 02:25:02;;;;;;;2.58;1.02;;;18.80;91.50;;;;;;5033576;28;20025;-77
2022/07/23 02:27:28;;;;;;;4.38;1.10;;;18.80;91.70;;;;;;5033322;28;20022;-77
2022/07/23 02:29:53;;;;;;;4.00;1.13;;;18.80;91.80;;;;;;5033372;28;20029;-77
2022/07/23 02:32:20;;;;;;;3.50;1.00;;;18.70;91.90;;;;;;5033471;28;20075;-77
2022/07/23 02:34:47;;;;;;;3.13;1.15;;;18.70;91.90;;;;;;5033362;28;20113;-77
2022/07/23 02:37:12;;;;;;;8.18;1.25;;;18.70;91.90;;;;;;5033285;28;20026;-77
2022/07/23 02:39:38;;;;;;;4.03;1.30;;;18.60;91.90;;;;;;5032943;28;20034;-77
2022/07/23 02:42:04;;;;;;;4.68;1.55;;;18.50;92.10;;;;;;5032875;28;20079;-77
2022/07/23 02:44:30;;;;;;;4.30;1.40;;;18.50;92.30;;;;;;5032767;28;20041;-77
2022/07/23 02:46:55;;;;;;;3.35;1.10;;;18.40;92.20;;;;;;5033344;28;20033;-77
2022/07/23 02:49:21;;;;;;;2.78;0.73;;;18.50;92.30;;;;;;5033313;28;20021;-77
2022/07/23 02:51:47;;;;;;;2.88;0.85;;;18.50;92.20;;;;;;5033018;28;20033;-77
2022/07/23 02:54:12;;;;;;;4.53;1.00;;;18.60;92.20;;;;;;5033041;28;20148;-77
2022/07/23 02:56:38;;;;;;;2.53;0.93;;;18.50;92.10;;;;;;5032787;28;20052;-77
2022/07/23 02:59:04;;;;;;;4.28;0.80;;;18.60;92.10;;;;;;5032791;28;20061;-77
2022/07/23 03:01:29;;;;;;;2.28;1.25;;;18.70;92.10;;;;;;5032934;28;20029;-77
2022/07/23 03:03:55;;;;;;;7.35;1.35;;;18.80;91.80;;;;;;5033098;28;20024;-77
2022/07/23 03:06:20;;;;;;;2.20;1.15;;;18.80;91.80;;;;;;5032843;28;20376;-77
2022/07/23 03:08:46;;;;;;;2.58;1.13;;;18.60;91.70;;;;;;5033170;28;20041;-77
2022/07/23 03:11:11;;;;;;;2.05;0.50;;;18.60;91.90;;;;;;5032810;28;20133;-77
2022/07/23 03:13:40;;;;;;;1.63;0.68;;;18.70;91.90;;;;;;5032513;28;20029;-77
2022/07/23 03:16:06;;;;;;;2.58;0.80;;;18.80;91.80;;;;;;5032997;28;20030;-77
2022/07/23 03:18:33;;;;;;;1.95;0.60;;;18.90;91.60;;;;;;5033121;28;20064;-77
2022/07/23 03:20:58;;;;;;;1.70;0.70;;;19.00;91.50;;;;;;5032797;28;20042;-77
2022/07/23 03:23:24;;;;;;;1.90;0.73;;;19.10;91.40;;;;;;5032865;28;20035;-77
2022/07/23 03:25:49;;;;;;;4.63;0.85;;;19.10;91.40;;;;;;5032950;28;20483;-77
2022/07/23 03:28:16;;;;;;;3.92;0.77;;;19.10;91.20;;;;;;5035544;28;20026;-77
2022/07/23 03:30:43;;;;;;;2.42;0.80;;;19.10;91.00;;;;;;5036558;28;20117;-77
2022/07/23 03:33:08;;;;;;;4.15;1.00;;;19.10;91.10;;;;;;5036672;28;20029;-77
2022/07/23 03:35:34;;;;;;;1.92;0.63;;;19.00;91.10;;;;;;5036563;28;20579;-77
2022/07/23 03:38:00;;;;;;;1.73;0.63;;;19.10;91.10;;;;;;5036540;28;20025;-77
2022/07/23 03:40:25;;;;;;;3.25;0.80;;;19.00;91.00;;;;;;5036304;28;20090;-77
2022/07/23 03:42:51;;;;;;;1.83;0.70;;;18.80;91.10;;;;;;5035841;28;20496;-77
2022/07/23 03:45:16;;;;;;;1.67;0.57;;;18.70;91.30;;;;;;5036429;28;20040;-77
2022/07/23 03:47:43;;;;;;;4.50;0.80;;;18.60;91.50;;;;;;5036009;28;20495;-77
2022/07/23 03:50:09;;;;;;;3.92;1.00;;;18.50;91.70;;;;;;5036281;28;20037;-77
2022/07/23 03:52:34;;;;;;;4.95;0.90;;;18.50;91.80;;;;;;5036195;28;20022;-77
2022/07/23 03:55:00;;;;;;;3.03;0.77;;;18.40;91.80;;;;;;5036346;28;20021;-77
2022/07/23 03:57:26;;;;;;;3.40;1.13;;;18.50;91.90;;;;;;5035559;28;20022;-77
2022/07/23 03:59:51;;;;;;;3.70;1.17;;;18.50;92.00;;;;;;5036107;28;20033;-77
2022/07/23 04:02:17;;;;;;;4.53;0.93;;;18.60;91.90;;;;;;5036084;28;20480;-77
2022/07/23 04:04:43;;;;;;;4.00;0.98;;;18.50;91.80;;;;;;5036074;28;20029;-77
2022/07/23 04:07:08;;;;;;;2.17;0.90;;;18.50;91.80;;;;;;5035842;28;20056;-77
2022/07/23 04:09:34;;;;;;;1.70;0.60;;;18.50;91.90;;;;;;5035753;28;20021;-77
2022/07/23 04:11:59;;;;;;;2.85;1.00;;;18.50;91.90;;;;;;5035621;28;20029;-77
2022/07/23 04:14:25;;;;;;;3.72;1.05;;;18.60;91.90;;;;;;5035873;28;20041;-77
2022/07/23 04:16:50;;;;;;;3.15;1.00;;;18.70;91.80;;;;;;5035607;28;20372;-77
2022/07/23 04:19:16;;;;;;;2.92;0.80;;;18.70;91.80;;;;;;5035780;28;20112;-77
2022/07/23 04:21:42;;;;;;;3.83;1.13;;;18.70;91.70;;;;;;5035572;28;20439;-77
2022/07/23 04:24:07;;;;;;;3.58;1.00;;;18.70;91.70;;;;;;5035504;28;20458;-77
2022/07/23 04:26:33;;;;;;;2.97;1.30;;;18.50;91.80;;;;;;5035161;28;20388;-77
2022/07/23 04:28:58;;;;;;;2.15;0.80;;;18.40;92.00;;;;;;5035701;28;20067;-77
2022/07/23 04:31:24;;;;;;;5.20;1.20;;;18.30;92.20;;;;;;5035577;28;20048;-77
2022/07/23 04:33:50;;;;;;;1.88;0.90;;;18.20;92.30;;;;;;5035431;28;20098;-77
2022/07/23 04:36:15;;;;;;;2.53;0.90;;;18.30;92.50;;;;;;5035503;28;20021;-77
2022/07/23 04:38:41;;;;;;;2.97;1.15;;;18.30;92.50;;;;;;5033774;28;20584;-77
2022/07/23 04:41:07;;;;;;;1.65;0.98;;;18.20;92.50;;;;;;5034934;28;20034;-77
2022/07/23 04:43:32;;;;;;;1.60;0.90;;;18.20;92.60;;;;;;5035098;28;20396;-77
2022/07/23 04:45:58;;;;;;;1.80;0.70;;;18.40;92.50;;;;;;5035022;28;20157;-77
2022/07/23 04:48:23;;;;;;;3.70;0.90;;;18.40;92.40;;;;;;5034909;28;20029;-77
2022/07/23 04:50:49;;;;;;;4.20;1.10;;;18.50;92.30;;;;;;5034825;28;20022;-77
2022/07/23 04:53:15;;;;;;;4.53;1.33;;;18.50;92.30;;;;;;5034744;28;20025;-76
2022/07/23 04:55:40;;;;;;;1.92;1.15;;;18.50;92.30;;;;;;5034661;28;20022;-77
2022/07/23 04:58:06;;;;;;;2.35;1.00;;;18.50;92.40;;;;;;5035036;28;20021;-76
2022/07/23 05:00:31;;;;;;;4.85;1.98;;;18.40;92.50;;;;;;5034597;28;20477;-76
2022/07/23 05:02:57;;;;;;;3.65;1.40;;;18.50;92.50;;;;;;5034968;28;20022;-77
2022/07/23 05:05:24;;;;;;;5.43;1.30;;;18.50;92.60;;;;;;5034850;28;20049;-77
2022/07/23 05:07:49;;;;;;;5.00;1.20;;;18.50;92.40;;;;;;5034389;28;20092;-77
2022/07/23 05:10:15;;;;;;;3.90;0.90;;;18.50;92.30;;;;;;5034259;28;20061;-77
2022/07/23 05:12:40;;;;;;;5.55;1.00;;;18.50;92.70;;;;;;5034711;28;20522;-77
2022/07/23 05:15:06;;;;;;;1.10;0.65;;;18.50;92.70;;;;;;5034578;28;20131;-76
2022/07/23 05:17:32;;;;;;;3.97;0.98;;;18.50;92.50;;;;;;5034676;28;20384;-77
2022/07/23 05:19:57;;;;;;;3.50;0.90;;;18.60;92.50;;;;;;5034267;28;20460;-77
2022/07/23 05:22:23;;;;;;;1.63;0.63;;;18.70;92.40;;;;;;5034023;28;20021;-77
2022/07/23 05:24:48;;;;;;;3.25;0.70;;;18.80;92.30;;;;;;5034396;28;20056;-76
2022/07/23 05:27:14;;;;;;;2.63;0.60;;;18.90;92.20;;;;;;5034412;28;20028;-77
2022/07/23 05:29:39;;;;;;;1.52;0.57;;;18.90;92.10;;;;;;5034146;28;20029;-77
2022/07/23 05:32:05;;;;;;;2.38;0.52;;;19.10;92.10;;;;;;5034461;28;20025;-77
2022/07/23 05:34:31;;;;;;;1.23;0.40;;;19.20;91.90;;;;;;5033946;28;20025;-77
2022/07/23 05:36:56;;;;;;;3.30;0.50;;;19.20;91.90;;;;;;5034021;28;20373;-77
2022/07/23 05:39:22;;;;;;;2.70;0.70;;;19.30;91.80;;;;;;5033718;28;20040;-77
2022/07/23 05:41:48;;;;;;;3.25;0.50;;;19.30;91.40;;;;;;5033979;28;20041;-77
2022/07/23 05:44:13;;;;;;;2.83;0.40;;;19.30;91.40;;;;;;5033339;28;20053;-77
2022/07/23 05:46:39;;;;;;;1.65;0.28;;;19.40;91.40;;;;;;5034025;28;20037;-77
2022/07/23 05:49:04;;;;;;;4.15;0.30;;;19.40;91.50;;;;;;5033876;28;20431;-77
2022/07/23 05:51:30;;;;;;;1.80;0.30;;;19.50;91.30;;;;;;5033830;28;20205;-77
2022/07/23 05:53:56;;;;;;;2.80;0.40;;;19.60;91.20;;;;;;5033506;28;20503;-76
2022/07/23 05:56:21;;;;;;;5.13;0.45;;;19.60;90.70;;;;;;5033874;28;20017;-76
2022/07/23 05:58:47;;;;;;;4.25;0.30;;;19.60;90.50;;;;;;5033816;28;20390;-76
2022/07/23 06:01:13;;;;;;;3.90;0.40;;;19.60;90.50;;;;;;5033448;28;20041;-77
2022/07/23 06:03:38;;;;;;;4.18;0.57;;;19.50;90.40;;;;;;5033601;28;20029;-76
2022/07/23 06:06:05;;;;;;;4.45;0.43;;;19.40;90.30;;;;;;5033513;28;20025;-77
2022/07/23 06:08:31;;;;;;;1.52;0.50;;;19.40;90.40;;;;;;5033429;28;20035;-77
2022/07/23 06:10:56;;;;;;;7.13;0.50;;;19.30;90.50;;;;;;5033700;28;20029;-77
2022/07/23 06:13:22;;;;;;;4.10;0.38;;;19.30;90.50;;;;;;5033648;28;20384;-77
2022/07/23 06:15:48;;;;;;;3.83;0.50;;;19.20;90.70;;;;;;5033272;28;20026;-77
2022/07/23 06:18:13;;;;;;;1.88;0.60;;;19.10;90.80;;;;;;5033530;28;20472;-77
2022/07/23 06:20:39;;;;;;;3.13;0.28;;;19.10;91.10;;;;;;5033544;28;20041;-76
2022/07/23 06:23:05;;;;;;;4.25;0.47;;;19.10;91.10;;;;;;5033203;28;20216;-77
2022/07/23 06:25:31;;;;;;;1.92;0.35;;;19.10;91.10;;;;;;5033302;28;20545;-77
2022/07/23 06:27:56;;;;;;;3.40;0.50;;;19.20;91.30;;;;;;5033335;28;20060;-77
2022/07/23 06:30:22;;;;;;;1.98;0.60;;;19.30;91.20;;;;;;5032965;28;20025;-77
2022/07/23 06:32:48;;;;;;;2.55;0.80;;;19.40;91.00;;;;;;5033201;28;20055;-77
2022/07/23 06:35:15;;;;;;;4.60;0.47;;;19.60;90.70;;;;;;5033166;28;20033;-77
2022/07/23 06:37:40;;;;;;;1.77;0.40;;;19.70;90.50;;;;;;5032834;28;20499;-76
2022/07/23 06:40:06;;;;;;;1.88;0.50;;;19.80;90.20;;;;;;5032902;28;20072;-77
2022/07/23 06:42:32;;;;;;;6.22;0.50;;;19.90;90.10;;;;;;5033382;28;20342;-77
2022/07/23 06:44:57;;;;;;;5.07;0.43;;;20.00;90.00;;;;;;5032926;28;20079;-77
2022/07/23 06:47:23;;;;;;;2.88;0.40;;;20.20;90.00;;;;;;5033377;28;20481;-76
2022/07/23 06:49:49;;;;;;;3.45;0.63;;;20.30;89.70;;;;;;5033061;28;20021;-77
2022/07/23 06:52:14;;;;;;;3.13;0.63;;;20.30;89.40;;;;;;5032754;28;20133;-76
2022/07/23 06:54:40;;;;;;;1.55;0.60;;;20.20;88.70;;;;;;5033280;28;20056;-77
2022/07/23 06:57:06;;;;;;;3.72;0.63;;;20.20;88.90;;;;;;5032869;28;20388;-76
2022/07/23 06:59:32;;;;;;;2.28;0.80;;;20.30;89.10;;;;;;5032864;28;20041;-77
2022/07/23 07:01:58;;;;;;;5.20;0.57;;;20.30;88.70;;;;;;5034055;28;20060;-77
2022/07/23 07:04:24;;;;;;;2.58;0.60;;;20.40;88.70;;;;;;5037046;28;20025;-77
2022/07/23 07:06:50;;;;;;;3.35;0.77;;;20.40;88.60;;;;;;5036643;28;20566;-77
2022/07/23 07:09:15;;;;;;;3.40;0.60;;;20.40;88.50;;;;;;5037041;28;20108;-77
2022/07/23 07:11:41;;;;;;;2.85;0.40;;;20.50;88.90;;;;;;5037008;28;20029;-76
2022/07/23 07:14:06;;;;;;;2.30;0.65;;;20.50;88.50;;;;;;5036419;28;20029;-77
2022/07/23 07:16:32;;;;;;;2.35;0.40;;;20.60;88.40;;;;;;5037038;28;20033;-76
2022/07/23 07:18:58;;;;;;;3.30;0.60;;;20.70;87.80;;;;;;5036590;28;20085;-77
2022/07/23 07:21:23;;;;;;;3.53;0.68;;;20.80;87.20;;;;;;5036423;28;20028;-77
2022/07/23 07:23:49;;;;;;;1.25;0.50;;;20.80;86.60;;;;;;5036281;28;20024;-77
2022/07/23 07:26:14;;;;;;;3.30;0.47;;;20.90;86.80;;;;;;5036643;28;20121;-77
2022/07/23 07:28:40;;;;;;;5.82;0.65;;;20.90;85.80;;;;;;5036569;28;20163;-77
2022/07/23 07:31:06;;;;;;;4.15;0.50;;;20.90;84.80;;;;;;5036527;28;20091;-77
2022/07/23 07:33:31;;;;;;;2.58;0.30;;;20.90;84.60;;;;;;5036713;28;20022;-77
2022/07/23 07:35:57;;;;;;;2.47;0.45;;;20.90;85.30;;;;;;5036392;28;20378;-77
2022/07/23 07:38:23;;;;;;;2.75;0.60;;;20.90;85.00;;;;;;5036339;28;20473;-77
2022/07/23 07:40:48;;;;;;;1.40;0.30;;;20.90;83.80;;;;;;5036488;28;20038;-77
2022/07/23 07:43:14;;;;;;;2.38;0.40;;;21.00;82.90;;;;;;5036195;28;20045;-76
2022/07/23 07:45:39;;;;;;;3.20;0.50;;;21.00;82.60;;;;;;5036240;28;20033;-77
2022/07/23 07:48:05;;;;;;;2.40;0.40;;;21.10;82.90;;;;;;5036162;28;20520;-77
2022/07/23 07:50:31;;;;;;;2.83;0.30;;;21.10;82.50;;;;;;5036032;28;20049;-77
2022/07/23 07:52:56;;;;;;;4.75;0.40;;;21.20;82.40;;;;;;5036270;28;20472;-77
2022/07/23 07:55:22;;;;;;;4.15;0.40;;;21.20;82.20;;;;;;5036053;28;20052;-77
2022/07/23 07:57:48;;;;;;;3.90;0.40;;;21.30;83.20;;;;;;5036090;28;20384;-77
2022/07/23 08:00:13;;;;;;;3.10;0.38;;;21.40;82.70;;;;;;5035898;28;20038;-77
2022/07/23 08:02:48;;;;;;;1.85;0.40;;;21.50;83.70;;;;;;5035990;28;20056;-77
2022/07/23 08:05:18;;;;;;;5.22;0.57;;;21.60;82.90;;;;;;5035691;28;20088;-77
2022/07/23 08:07:43;;;;;;;1.05;0.30;;;21.60;81.50;;;;;;5035982;28;20024;-77
2022/07/23 08:10:10;;;;;;;1.95;0.40;;;21.70;81.40;;;;;;5035743;28;20104;-77
2022/07/23 08:12:41;;;;;;;3.67;0.40;;;21.80;81.30;;;;;;5035648;28;20021;-77
2022/07/23 08:15:07;;;;;;;2.15;0.70;;;21.90;82.10;;;;;;5035551;28;20021;-77
2022/07/23 08:17:33;;;;;;;3.22;0.52;;;21.80;82.40;;;;;;5035482;28;20464;-77
2022/07/23 08:19:58;;;;;;;3.60;0.45;;;21.80;83.60;;;;;;5035470;28;20052;-77
2022/07/23 08:22:24;;;;;;;1.77;0.30;;;21.90;82.20;;;;;;5035457;28;20396;-77
2022/07/23 08:24:49;;;;;;;1.60;0.38;;;22.10;81.30;;;;;;5035475;28;20064;-77
2022/07/23 08:27:15;;;;;;;2.45;0.38;;;22.20;81.90;;;;;;5035612;28;20021;-77
2022/07/23 08:29:40;;;;;;;3.33;0.55;;;22.30;81.30;;;;;;5035404;28;20403;-77
2022/07/23 08:32:06;;;;;;;3.20;0.50;;;22.40;81.50;;;;;;5035274;28;20021;-77
2022/07/23 08:34:32;;;;;;;6.93;0.93;;;22.30;80.00;;;;;;5035062;28;20022;-77
2022/07/23 08:36:57;;;;;;;1.65;0.50;;;22.40;79.60;;;;;;5035058;28;20083;-77
2022/07/23 08:39:23;;;;;;;2.40;0.30;;;22.30;80.20;;;;;;5035188;28;20041;-77
2022/07/23 08:41:49;;;;;;;1.98;0.45;;;22.40;80.10;;;;;;5035186;28;20473;-77
2022/07/23 08:44:16;;;;;;;7.53;0.90;;;22.50;79.40;;;;;;5034856;28;20123;-77
2022/07/23 08:46:44;;;;;;;4.53;0.50;;;22.60;78.90;;;;;;5035160;28;20101;-77
2022/07/23 08:49:10;;;;;;;2.50;0.50;;;22.80;78.20;;;;;;5035002;28;20026;-77
2022/07/23 08:51:35;;;;;;;3.28;0.60;;;22.80;77.00;;;;;;5034984;28;20087;-77
2022/07/23 08:54:01;;;;;;;2.53;0.75;;;22.80;77.30;;;;;;5035096;28;20021;-77
2022/07/23 08:56:27;;;;;;;3.20;0.65;;;22.60;78.00;;;;;;5034561;28;20116;-77
2022/07/23 08:58:55;;;;;;;2.00;0.43;;;22.50;78.50;;;;;;5034911;28;20104;-77
2022/07/23 09:01:21;;;;;;;2.28;0.40;;;22.50;79.00;;;;;;5034509;28;20045;-77
2022/07/23 09:03:46;;;;;;;2.08;0.45;;;22.60;78.70;;;;;;5034842;28;20026;-77
2022/07/23 09:06:12;;;;;;;1.80;0.40;;;22.70;76.50;;;;;;5034580;28;20025;-77
2022/07/23 09:08:42;;;;;;;4.25;0.50;;;22.80;75.60;;;;;;5034656;28;20033;-77
2022/07/23 09:11:10;;;;;;;2.22;0.43;;;22.90;74.90;;;;;;5034482;28;20029;-77
2022/07/23 09:13:49;;;;;;;1.63;0.40;;;23.00;75.50;;;;;;5034484;28;20086;-77
2022/07/23 09:16:23;;;;;;;1.95;0.40;;;23.20;73.90;;;;;;5034260;28;20033;-77
2022/07/23 09:18:51;;;;;;;1.85;0.35;;;23.30;75.40;;;;;;5034436;28;20492;-77
2022/07/23 09:21:30;;;;;;;3.05;0.63;;;23.30;74.30;;;;;;5034144;28;20496;-78
2022/07/23 09:24:02;;;;;;;1.60;0.70;;;23.40;74.80;;;;;;5034047;28;20025;-77
2022/07/23 09:26:30;;;;;;;2.85;0.57;;;23.40;74.50;;;;;;5033891;28;20033;-77
2022/07/23 09:28:58;;;;;;;3.65;0.60;;;23.40;75.40;;;;;;5034313;28;20025;-77
2022/07/23 09:31:25;;;;;;;2.22;0.63;;;23.50;75.10;;;;;;5034081;28;20018;-77
2022/07/23 09:33:51;;;;;;;2.22;0.40;;;23.60;73.70;;;;;;5034012;28;20393;-77
2022/07/23 09:36:28;;;;;;;4.47;0.60;;;23.60;74.60;;;;;;5034100;28;20427;-78
2022/07/23 09:38:54;;;;;;;1.90;0.30;;;23.70;74.00;;;;;;5034181;28;20026;-77
2022/07/23 09:41:20;;;;;;;2.85;0.40;;;23.80;74.20;;;;;;5034050;28;20114;-77
2022/07/23 09:43:46;;;;;;;3.22;0.40;;;23.90;72.40;;;;;;5033871;28;20139;-77
2022/07/23 09:46:27;;;;;;;3.90;0.68;;;24.10;72.10;;;;;;5034022;28;20468;-77
2022/07/23 09:48:56;;;;;;;4.27;0.50;;;24.00;71.50;;;;;;5033900;28;20021;-77
2022/07/23 09:51:38;;;;;;;2.72;0.52;;;23.90;72.30;;;;;;5034077;28;20256;-77
2022/07/23 09:54:04;;;;;;;3.80;0.55;;;24.00;71.40;;;;;;5033739;28;20412;-77
2022/07/23 09:56:31;;;;;;;3.17;0.80;;;23.80;70.00;;;;;;5033400;28;20036;-77
2022/07/23 09:59:04;;;;;;;2.00;0.47;;;23.60;72.40;;;;;;5033652;28;20025;-76
2022/07/23 10:01:32;;;;;;;2.88;0.63;;;23.70;73.40;;;;;;5033711;28;20029;-78
2022/07/23 10:04:05;;;;;;;2.88;0.40;;;23.90;71.70;;;;;;5033522;28;20084;-76
2022/07/23 10:06:31;;;;;;;3.17;0.38;;;24.10;72.70;;;;;;5033642;28;20036;-77
2022/07/23 10:08:59;;;;;;;5.32;0.40;;;24.30;72.30;;;;;;5033854;28;20025;-77
2022/07/23 10:11:26;;;;;;;3.33;0.70;;;24.60;70.70;;;;;;5033629;28;20018;-76
2022/07/23 10:14:02;;;;;;;3.17;0.70;;;24.80;69.80;;;;;;5033700;28;20439;-77
2022/07/23 10:16:28;;;;;;;4.70;1.02;;;24.90;67.70;;;;;;5033394;28;20030;-77
2022/07/23 10:18:55;;;;;;;4.18;0.65;;;25.00;68.30;;;;;;5033534;28;20108;-77
2022/07/23 10:21:49;;;;;;;2.95;0.57;;;25.00;67.80;;;;;;5033263;28;20041;-77
2022/07/23 10:24:52;;;;;;;3.55;0.70;;;24.80;69.30;;;;;;5033200;28;20022;-77
2022/07/23 10:27:54;;;;;;;4.55;0.80;;;24.80;69.10;;;;;;5033289;28;20033;-77
2022/07/23 10:30:25;;;;;;;2.17;1.08;;;25.00;68.80;;;;;;5033270;28;20033;-77
2022/07/23 10:32:55;;;;;;;3.70;0.77;;;25.00;67.00;;;;;;5033082;28;20104;-77
2022/07/23 10:35:33;;;;;;;1.38;0.88;;;25.00;67.60;;;;;;5032802;28;20025;-77
2022/07/23 10:38:13;;;;;;;2.55;0.70;;;25.10;67.50;;;;;;5032492;28;20025;-77
2022/07/23 10:41:00;;;;;;;2.28;0.70;;;25.00;66.70;;;;;;5032854;28;20061;-77
2022/07/23 10:43:26;;;;;;;3.00;0.60;;;25.20;66.30;;;;;;5032926;28;20204;-77
2022/07/23 10:45:53;;;;;;;5.90;1.10;;;25.40;67.40;;;;;;5032701;28;20037;-77
2022/07/23 10:48:29;;;;;;;1.88;0.60;;;25.50;66.70;;;;;;5032793;28;20021;-76
2022/07/23 10:51:13;;;;;;;3.67;1.48;;;25.60;65.50;;;;;;5033055;28;20030;-77
2022/07/23 10:53:50;;;;;;;2.35;0.68;;;25.60;66.20;;;;;;5032928;28;20432;-77
2022/07/23 10:56:36;;;;;;;3.40;0.80;;;25.70;64.80;;;;;;5032887;28;20381;-77
2022/07/23 10:59:05;;;;;;;4.80;0.82;;;25.70;64.10;;;;;;5011755;28;20030;-77
2022/07/23 11:01:39;;;;;;;2.10;0.68;;;25.80;63.60;;;;;;5032972;28;20034;-77
2022/07/23 11:04:08;;;;;;;1.58;0.50;;;26.00;63.80;;;;;;5032993;28;20017;-77
2022/07/23 11:06:49;;;;;;;1.85;0.57;;;26.10;63.30;;;;;;5032220;28;20104;-77
2022/07/23 11:09:42;;;;;;;1.23;0.57;;;26.20;63.00;;;;;;5033052;28;20033;-77
2022/07/23 11:12:14;;;;;;;2.40;0.50;;;26.30;62.70;;;;;;5032798;28;20025;-77
2022/07/23 11:15:12;;;;;;;2.08;0.80;;;26.30;62.80;;;;;;5032820;28;20051;-77
2022/07/23 11:17:42;;;;;;;2.33;0.60;;;26.50;62.40;;;;;;5032885;28;20033;-77
2022/07/23 11:20:15;;;;;;;1.90;0.50;;;26.50;62.40;;;;;;5032736;28;20044;-77
2022/07/23 11:22:43;;;;;;;1.60;0.45;;;26.30;61.40;;;;;;5032624;28;20041;-77
2022/07/23 11:25:21;;;;;;;1.10;0.40;;;26.10;61.50;;;;;;5032671;28;20021;-77
2022/07/23 11:27:49;;;;;;;2.33;0.40;;;26.10;62.00;;;;;;5032452;28;20540;-77
2022/07/23 11:30:26;;;;;;;2.85;0.60;;;26.30;63.20;;;;;;5032525;28;20152;-78
2022/07/23 11:33:08;;;;;;;1.90;0.70;;;26.40;62.60;;;;;;5032900;28;20101;-78
2022/07/23 11:35:38;;;;;;;1.17;0.60;;;26.40;60.70;;;;;;5032418;28;20376;-78
2022/07/23 11:38:24;;;;;;;1.35;0.50;;;26.50;60.10;;;;;;5032224;28;20037;-76
2022/07/23 11:40:54;;;;;;;2.13;0.60;;;26.50;59.90;;;;;;5032199;28;20045;-78
2022/07/23 11:43:20;;;;;;;2.50;0.73;;;26.50;60.40;;;;;;5032358;28;20057;-78
2022/07/23 11:45:50;;;;;;;1.83;0.68;;;26.40;60.90;;;;;;5032249;28;20044;-77
2022/07/23 11:48:21;;;;;;;3.60;0.55;;;26.50;61.80;;;;;;5033903;28;20018;-77
2022/07/23 11:50:48;;;;;;;2.70;0.93;;;26.50;60.70;;;;;;5035893;28;20056;-77
2022/07/23 11:53:13;;;;;;;4.07;0.57;;;26.60;60.60;;;;;;5036045;28;20026;-77
2022/07/23 11:55:39;;;;;;;1.88;0.68;;;26.60;61.20;;;;;;5036031;28;20025;-77
2022/07/23 11:58:04;;;;;;;3.63;0.73;;;26.70;60.40;;;;;;5035856;28;20346;-77
2022/07/23 12:00:31;;;;;;;2.60;1.10;;;26.60;59.60;;;;;;5035781;28;20033;-77
2022/07/23 12:03:01;;;;;;;4.53;0.73;;;26.50;60.20;;;;;;5035898;28;20071;-77
2022/07/23 12:05:33;;;;;;;3.60;0.88;;;26.40;59.80;;;;;;5035644;28;20481;-77
2022/07/23 12:08:00;;;;;;;2.00;0.80;;;26.30;61.40;;;;;;5035705;28;20036;-77
2022/07/23 12:10:27;;;;;;;1.55;0.52;;;26.20;60.50;;;;;;5035948;28;20435;-77
2022/07/23 12:12:53;;;;;;;1.75;0.60;;;26.20;60.90;;;;;;5035934;28;20111;-77
2022/07/23 12:15:28;;;;;;;5.65;0.82;;;26.20;60.70;;;;;;5035145;28;20095;-77
2022/07/23 12:17:54;;;;;;;2.22;0.85;;;26.30;61.20;;;;;;5035709;28;20041;-77
2022/07/23 12:20:25;;;;;;;2.63;0.60;;;26.20;61.00;;;;;;5035699;28;20065;-77
2022/07/23 12:22:56;;;;;;;2.43;0.53;;;26.10;61.40;;;;;;5035616;28;20029;-77
2022/07/23 12:25:24;;;;;;;2.22;0.70;;;26.00;61.50;;;;;;5035483;28;20366;-77
2022/07/23 12:28:02;;;;;;;1.50;0.60;;;26.00;60.90;;;;;;5034968;28;20025;-77
2022/07/23 12:30:49;;;;;;;1.65;0.68;;;26.00;61.40;;;;;;5035430;28;20077;-77
2022/07/23 12:33:25;;;;;;;2.00;0.95;;;26.10;60.70;;;;;;5035279;28;20112;-77
2022/07/23 12:35:53;;;;;;;1.25;0.77;;;26.30;59.70;;;;;;5035166;28;20561;-78
2022/07/23 12:38:21;;;;;;;3.10;0.90;;;26.40;59.90;;;;;;5034960;28;20036;-77
2022/07/23 12:40:53;;;;;;;2.53;0.90;;;26.60;59.50;;;;;;5035042;28;20057;-77
2022/07/23 12:43:30;;;;;;;3.28;0.63;;;26.70;59.40;;;;;;5035139;28;20143;-77
2022/07/23 12:46:06;;;;;;;1.95;0.80;;;26.70;58.80;;;;;;5034805;28;20033;-77
2022/07/23 12:48:37;;;;;;;1.20;0.68;;;26.70;59.20;;;;;;5034722;28;20036;-77
2022/07/23 12:51:04;;;;;;;1.50;0.52;;;26.70;59.30;;;;;;5035331;28;20029;-77